sensor_id;sensor_type;location;lat;lon;timestamp;P1;durP1;ratioP1;P2;durP2;ratioP2
81219;SDS011;70690;52.494;13.410;2023-07-20T00:01:26;8.15;;;4.72;;
81219;SDS011;70690;52.494;13.410;2023-07-20T00:03:52;5.72;;;4.10;;
81219;SDS011;70690;52.494;13.410;2023-07-20T00:06:24;5.60;;;4.70;;
81219;SDS011;70690;52.494;13.410;2023-07-20T00:08:52;8.27;;;4.30;;
81219;SDS011;70690;52.494;13.410;2023-07-20T00:11:19;7.70;;;4.68;;
81219;SDS011;70690;52.494;13.410;2023-07-20T00:13:45;8.93;;;4.70;;
81219;SDS011;70690;52.494;13.410;2023-07-20T00:16:10;7.88;;;4.65;;
81219;SDS011;70690;52.494;13.410;2023-07-20T00:18:36;8.68;;;5.05;;
81219;SDS011;70690;52.494;13.410;2023-07-20T00:21:02;5.70;;;4.93;;
81219;SDS011;70690;52.494;13.410;2023-07-20T00:23:29;6.05;;;4.90;;
81219;SDS011;70690;52.494;13.410;2023-07-20T00:25:54;5.97;;;4.85;;
81219;SDS011;70690;52.494;13.410;2023-07-20T00:28:20;6.68;;;5.05;;
81219;SDS011;70690;52.494;13.410;2023-07-20T00:30:46;7.13;;;5.03;;
81219;SDS011;70690;52.494;13.410;2023-07-20T00:33:12;5.80;;;5.07;;
81219;SDS011;70690;52.494;13.410;2023-07-20T00:35:38;6.35;;;4.78;;
81219;SDS011;70690;52.494;13.410;2023-07-20T00:38:04;8.38;;;5.13;;
81219;SDS011;70690;52.494;13.410;2023-07-20T00:40:37;7.00;;;5.03;;
81219;SDS011;70690;52.494;13.410;2023-07-20T00:43:03;5.95;;;4.72;;
81219;SDS011;70690;52.494;13.410;2023-07-20T00:45:30;6.63;;;4.82;;
81219;SDS011;70690;52.494;13.410;2023-07-20T00:47:56;13.30;;;4.88;;
81219;SDS011;70690;52.494;13.410;2023-07-20T00:50:23;8.88;;;5.00;;
81219;SDS011;70690;52.494;13.410;2023-07-20T00:52:49;8.32;;;5.07;;
81219;SDS011;70690;52.494;13.410;2023-07-20T00:55:15;10.80;;;5.22;;
81219;SDS011;70690;52.494;13.410;2023-07-20T00:57:41;7.28;;;5.07;;
81219;SDS011;70690;52.494;13.410;2023-07-20T01:00:07;7.45;;;5.20;;
81219;SDS011;70690;52.494;13.410;2023-07-20T01:02:33;8.18;;;5.13;;
81219;SDS011;70690;52.494;13.410;2023-07-20T01:05:19;5.53;;;4.85;;
81219;SDS011;70690;52.494;13.410;2023-07-20T01:07:53;8.88;;;5.55;;
81219;SDS011;70690;52.494;13.410;2023-07-20T01:10:41;8.52;;;5.43;;
81219;SDS011;70690;52.494;13.410;2023-07-20T01:13:11;6.50;;;5.30;;
81219;SDS011;70690;52.494;13.410;2023-07-20T01:15:40;8.68;;;5.50;;
81219;SDS011;70690;52.494;13.410;2023-07-20T01:18:05;5.95;;;5.35;;
81219;SDS011;70690;52.494;13.410;2023-07-20T01:20:32;6.30;;;5.10;;
81219;SDS011;70690;52.494;13.410;2023-07-20T01:26:23;7.93;;;4.80;;
81219;SDS011;70690;52.494;13.410;2023-07-20T01:29:17;5.40;;;4.72;;
81219;SDS011;70690;52.494;13.410;2023-07-20T01:31:40;7.88;;;5.40;;
81219;SDS011;70690;52.494;13.410;2023-07-20T01:34:07;7.53;;;5.28;;
81219;SDS011;70690;52.494;13.410;2023-07-20T01:36:36;6.57;;;5.32;;
81219;SDS011;70690;52.494;13.410;2023-07-20T01:39:03;8.25;;;5.30;;
81219;SDS011;70690;52.494;13.410;2023-07-20T01:41:31;9.18;;;4.88;;
81219;SDS011;70690;52.494;13.410;2023-07-20T01:43:58;6.15;;;5.20;;
81219;SDS011;70690;52.494;13.410;2023-07-20T01:46:24;8.52;;;5.25;;
81219;SDS011;70690;52.494;13.410;2023-07-20T01:48:50;6.00;;;5.07;;
81219;SDS011;70690;52.494;13.410;2023-07-20T01:51:16;6.78;;;4.95;;
81219;SDS011;70690;52.494;13.410;2023-07-20T01:53:43;6.70;;;5.10;;
81219;SDS011;70690;52.494;13.410;2023-07-20T01:56:08;6.15;;;5.50;;
81219;SDS011;70690;52.494;13.410;2023-07-20T01:58:37;6.72;;;4.75;;
81219;SDS011;70690;52.494;13.410;2023-07-20T02:01:03;6.20;;;5.07;;
81219;SDS011;70690;52.494;13.410;2023-07-20T02:03:28;6.10;;;4.85;;
81219;SDS011;70690;52.494;13.410;2023-07-20T02:05:54;8.07;;;4.85;;
81219;SDS011;70690;52.494;13.410;2023-07-20T02:08:22;7.20;;;5.10;;
81219;SDS011;70690;52.494;13.410;2023-07-20T02:10:48;8.65;;;5.50;;
81219;SDS011;70690;52.494;13.410;2023-07-20T02:13:14;6.90;;;5.25;;
81219;SDS011;70690;52.494;13.410;2023-07-20T02:15:41;5.70;;;5.18;;
81219;SDS011;70690;52.494;13.410;2023-07-20T02:18:07;10.88;;;5.68;;
81219;SDS011;70690;52.494;13.410;2023-07-20T02:20:33;7.32;;;6.38;;
81219;SDS011;70690;52.494;13.410;2023-07-20T02:23:00;8.48;;;5.68;;
81219;SDS011;70690;52.494;13.410;2023-07-20T02:25:25;7.45;;;5.65;;
81219;SDS011;70690;52.494;13.410;2023-07-20T02:27:51;7.20;;;5.50;;
81219;SDS011;70690;52.494;13.410;2023-07-20T02:30:17;8.93;;;6.03;;
81219;SDS011;70690;52.494;13.410;2023-07-20T02:32:43;7.65;;;6.10;;
81219;SDS011;70690;52.494;13.410;2023-07-20T02:35:13;7.65;;;5.90;;
81219;SDS011;70690;52.494;13.410;2023-07-20T02:37:48;7.60;;;6.53;;
81219;SDS011;70690;52.494;13.410;2023-07-20T02:40:14;8.88;;;6.72;;
81219;SDS011;70690;52.494;13.410;2023-07-20T02:42:40;7.63;;;6.80;;
81219;SDS011;70690;52.494;13.410;2023-07-20T02:45:06;9.57;;;6.85;;
81219;SDS011;70690;52.494;13.410;2023-07-20T02:47:32;8.25;;;6.70;;
81219;SDS011;70690;52.494;13.410;2023-07-20T02:49:58;8.63;;;6.90;;
81219;SDS011;70690;52.494;13.410;2023-07-20T02:52:24;10.10;;;7.13;;
81219;SDS011;70690;52.494;13.410;2023-07-20T02:54:50;9.93;;;6.95;;
81219;SDS011;70690;52.494;13.410;2023-07-20T02:57:16;7.78;;;6.80;;
81219;SDS011;70690;52.494;13.410;2023-07-20T02:59:42;9.80;;;7.57;;
81219;SDS011;70690;52.494;13.410;2023-07-20T03:02:08;10.27;;;8.93;;
81219;SDS011;70690;52.494;13.410;2023-07-20T03:04:36;10.23;;;8.32;;
81219;SDS011;70690;52.494;13.410;2023-07-20T03:07:04;10.48;;;8.13;;
81219;SDS011;70690;52.494;13.410;2023-07-20T03:09:30;10.00;;;9.00;;
81219;SDS011;70690;52.494;13.410;2023-07-20T03:11:56;11.60;;;9.25;;
81219;SDS011;70690;52.494;13.410;2023-07-20T03:14:21;11.00;;;9.90;;
81219;SDS011;70690;52.494;13.410;2023-07-20T03:16:48;11.60;;;9.50;;
81219;SDS011;70690;52.494;13.410;2023-07-20T03:19:14;14.88;;;10.60;;
81219;SDS011;70690;52.494;13.410;2023-07-20T03:21:40;12.02;;;9.88;;
81219;SDS011;70690;52.494;13.410;2023-07-20T03:24:07;10.60;;;9.55;;
81219;SDS011;70690;52.494;13.410;2023-07-20T03:26:33;12.93;;;9.85;;
81219;SDS011;70690;52.494;13.410;2023-07-20T03:29:00;13.75;;;10.00;;
81219;SDS011;70690;52.494;13.410;2023-07-20T03:31:25;11.80;;;10.13;;
81219;SDS011;70690;52.494;13.410;2023-07-20T03:33:51;10.95;;;9.85;;
81219;SDS011;70690;52.494;13.410;2023-07-20T03:36:17;11.93;;;10.38;;
81219;SDS011;70690;52.494;13.410;2023-07-20T03:38:43;16.27;;;10.35;;
81219;SDS011;70690;52.494;13.410;2023-07-20T03:41:09;13.70;;;10.88;;
81219;SDS011;70690;52.494;13.410;2023-07-20T03:43:37;17.02;;;11.70;;
81219;SDS011;70690;52.494;13.410;2023-07-20T03:46:03;12.98;;;11.65;;
81219;SDS011;70690;52.494;13.410;2023-07-20T03:48:32;14.55;;;11.75;;
81219;SDS011;70690;52.494;13.410;2023-07-20T03:50:58;16.90;;;12.68;;
81219;SDS011;70690;52.494;13.410;2023-07-20T03:53:25;13.90;;;11.82;;
81219;SDS011;70690;52.494;13.410;2023-07-20T03:55:51;14.40;;;12.98;;
81219;SDS011;70690;52.494;13.410;2023-07-20T03:58:18;14.38;;;12.93;;
81219;SDS011;70690;52.494;13.410;2023-07-20T04:00:45;14.52;;;12.63;;
81219;SDS011;70690;52.494;13.410;2023-07-20T04:03:12;11.32;;;10.13;;
81219;SDS011;70690;52.494;13.410;2023-07-20T04:05:38;11.32;;;9.75;;
81219;SDS011;70690;52.494;13.410;2023-07-20T04:08:04;10.38;;;8.88;;
81219;SDS011;70690;52.494;13.410;2023-07-20T04:10:29;10.45;;;8.45;;
81219;SDS011;70690;52.494;13.410;2023-07-20T04:12:55;10.65;;;7.93;;
81219;SDS011;70690;52.494;13.410;2023-07-20T04:15:21;9.15;;;7.15;;
81219;SDS011;70690;52.494;13.410;2023-07-20T04:17:47;8.68;;;7.78;;
81219;SDS011;70690;52.494;13.410;2023-07-20T04:20:13;8.75;;;7.70;;
81219;SDS011;70690;52.494;13.410;2023-07-20T04:22:38;8.80;;;7.30;;
81219;SDS011;70690;52.494;13.410;2023-07-20T04:25:04;8.25;;;7.45;;
81219;SDS011;70690;52.494;13.410;2023-07-20T04:27:30;9.55;;;7.82;;
81219;SDS011;70690;52.494;13.410;2023-07-20T04:29:58;7.90;;;7.10;;
81219;SDS011;70690;52.494;13.410;2023-07-20T04:32:27;8.48;;;7.30;;
81219;SDS011;70690;52.494;13.410;2023-07-20T04:34:53;8.27;;;7.40;;
81219;SDS011;70690;52.494;13.410;2023-07-20T04:37:18;8.20;;;6.90;;
81219;SDS011;70690;52.494;13.410;2023-07-20T04:39:44;9.18;;;7.30;;
81219;SDS011;70690;52.494;13.410;2023-07-20T04:42:10;9.93;;;8.75;;
81219;SDS011;70690;52.494;13.410;2023-07-20T04:44:36;9.70;;;8.75;;
81219;SDS011;70690;52.494;13.410;2023-07-20T04:47:02;10.52;;;8.20;;
81219;SDS011;70690;52.494;13.410;2023-07-20T04:49:28;9.10;;;8.15;;
81219;SDS011;70690;52.494;13.410;2023-07-20T04:51:53;9.98;;;8.27;;
81219;SDS011;70690;52.494;13.410;2023-07-20T04:54:19;9.15;;;8.00;;
81219;SDS011;70690;52.494;13.410;2023-07-20T04:56:45;10.50;;;8.02;;
81219;SDS011;70690;52.494;13.410;2023-07-20T04:59:11;10.52;;;7.90;;
81219;SDS011;70690;52.494;13.410;2023-07-20T05:01:37;11.70;;;7.53;;
81219;SDS011;70690;52.494;13.410;2023-07-20T05:04:03;8.00;;;6.95;;
81219;SDS011;70690;52.494;13.410;2023-07-20T05:06:29;8.13;;;6.75;;
81219;SDS011;70690;52.494;13.410;2023-07-20T05:08:54;10.48;;;6.97;;
81219;SDS011;70690;52.494;13.410;2023-07-20T05:11:20;8.50;;;6.90;;
81219;SDS011;70690;52.494;13.410;2023-07-20T05:13:46;11.35;;;7.43;;
81219;SDS011;70690;52.494;13.410;2023-07-20T05:16:15;7.45;;;6.45;;
81219;SDS011;70690;52.494;13.410;2023-07-20T05:18:41;7.20;;;6.20;;
81219;SDS011;70690;52.494;13.410;2023-07-20T05:21:06;7.05;;;6.35;;
81219;SDS011;70690;52.494;13.410;2023-07-20T05:23:33;8.60;;;6.00;;
81219;SDS011;70690;52.494;13.410;2023-07-20T05:25:58;11.98;;;5.97;;
81219;SDS011;70690;52.494;13.410;2023-07-20T05:28:24;7.72;;;5.35;;
81219;SDS011;70690;52.494;13.410;2023-07-20T05:30:51;7.30;;;5.22;;
81219;SDS011;70690;52.494;13.410;2023-07-20T05:33:18;7.18;;;5.18;;
81219;SDS011;70690;52.494;13.410;2023-07-20T05:35:44;8.75;;;5.45;;
81219;SDS011;70690;52.494;13.410;2023-07-20T05:38:10;6.38;;;5.03;;
81219;SDS011;70690;52.494;13.410;2023-07-20T05:43:42;10.85;;;5.45;;
81219;SDS011;70690;52.494;13.410;2023-07-20T05:46:08;5.90;;;5.00;;
81219;SDS011;70690;52.494;13.410;2023-07-20T05:48:34;8.10;;;5.30;;
81219;SDS011;70690;52.494;13.410;2023-07-20T05:51:01;6.05;;;5.47;;
81219;SDS011;70690;52.494;13.410;2023-07-20T05:53:26;7.75;;;5.78;;
81219;SDS011;70690;52.494;13.410;2023-07-20T05:55:53;9.15;;;5.75;;
81219;SDS011;70690;52.494;13.410;2023-07-20T05:58:19;6.88;;;6.07;;
81219;SDS011;70690;52.494;13.410;2023-07-20T06:00:49;7.78;;;5.90;;
81219;SDS011;70690;52.494;13.410;2023-07-20T06:03:15;9.95;;;6.18;;
81219;SDS011;70690;52.494;13.410;2023-07-20T06:05:43;8.93;;;6.15;;
81219;SDS011;70690;52.494;13.410;2023-07-20T06:08:10;8.93;;;5.93;;
81219;SDS011;70690;52.494;13.410;2023-07-20T06:10:36;9.70;;;6.57;;
81219;SDS011;70690;52.494;13.410;2023-07-20T06:13:01;8.65;;;6.63;;
81219;SDS011;70690;52.494;13.410;2023-07-20T06:15:33;7.68;;;6.25;;
81219;SDS011;70690;52.494;13.410;2023-07-20T06:18:04;7.03;;;6.28;;
81219;SDS011;70690;52.494;13.410;2023-07-20T06:20:29;12.00;;;6.25;;
81219;SDS011;70690;52.494;13.410;2023-07-20T06:22:55;7.15;;;6.30;;
81219;SDS011;70690;52.494;13.410;2023-07-20T06:25:21;8.57;;;7.05;;
81219;SDS011;70690;52.494;13.410;2023-07-20T06:27:48;7.85;;;6.53;;
81219;SDS011;70690;52.494;13.410;2023-07-20T06:30:16;7.60;;;6.78;;
81219;SDS011;70690;52.494;13.410;2023-07-20T06:32:42;7.35;;;6.32;;
81219;SDS011;70690;52.494;13.410;2023-07-20T06:35:07;6.93;;;6.00;;
81219;SDS011;70690;52.494;13.410;2023-07-20T06:37:34;6.03;;;5.38;;
81219;SDS011;70690;52.494;13.410;2023-07-20T06:40:02;6.82;;;5.65;;
81219;SDS011;70690;52.494;13.410;2023-07-20T06:42:28;9.52;;;5.47;;
81219;SDS011;70690;52.494;13.410;2023-07-20T06:44:55;6.78;;;5.38;;
81219;SDS011;70690;52.494;13.410;2023-07-20T06:47:21;5.57;;;4.53;;
81219;SDS011;70690;52.494;13.410;2023-07-20T06:49:47;6.45;;;3.92;;
81219;SDS011;70690;52.494;13.410;2023-07-20T06:52:12;6.30;;;3.72;;
81219;SDS011;70690;52.494;13.410;2023-07-20T06:54:38;6.18;;;3.83;;
81219;SDS011;70690;52.494;13.410;2023-07-20T06:57:05;6.00;;;3.88;;
81219;SDS011;70690;52.494;13.410;2023-07-20T06:59:30;9.23;;;3.60;;
81219;SDS011;70690;52.494;13.410;2023-07-20T07:01:56;3.80;;;3.03;;
81219;SDS011;70690;52.494;13.410;2023-07-20T07:04:22;6.63;;;3.03;;
81219;SDS011;70690;52.494;13.410;2023-07-20T07:06:48;3.92;;;2.67;;
81219;SDS011;70690;52.494;13.410;2023-07-20T07:09:14;4.78;;;2.80;;
81219;SDS011;70690;52.494;13.410;2023-07-20T07:11:39;8.82;;;2.80;;
81219;SDS011;70690;52.494;13.410;2023-07-20T07:14:05;3.63;;;2.70;;
81219;SDS011;70690;52.494;13.410;2023-07-20T07:16:31;3.95;;;2.92;;
81219;SDS011;70690;52.494;13.410;2023-07-20T07:18:56;3.55;;;2.75;;
81219;SDS011;70690;52.494;13.410;2023-07-20T07:21:23;8.68;;;2.70;;
81219;SDS011;70690;52.494;13.410;2023-07-20T07:23:50;9.57;;;3.20;;
81219;SDS011;70690;52.494;13.410;2023-07-20T07:26:18;5.82;;;2.70;;
81219;SDS011;70690;52.494;13.410;2023-07-20T07:28:44;3.90;;;2.50;;
81219;SDS011;70690;52.494;13.410;2023-07-20T07:31:10;5.30;;;2.70;;
81219;SDS011;70690;52.494;13.410;2023-07-20T07:33:36;2.30;;;1.48;;
81219;SDS011;70690;52.494;13.410;2023-07-20T07:36:02;4.22;;;1.90;;
81219;SDS011;70690;52.494;13.410;2023-07-20T07:38:28;3.58;;;1.60;;
81219;SDS011;70690;52.494;13.410;2023-07-20T07:40:54;3.55;;;1.90;;
81219;SDS011;70690;52.494;13.410;2023-07-20T07:46:21;3.08;;;1.70;;
81219;SDS011;70690;52.494;13.410;2023-07-20T07:48:47;3.22;;;2.00;;
81219;SDS011;70690;52.494;13.410;2023-07-20T07:51:13;4.03;;;2.28;;
81219;SDS011;70690;52.494;13.410;2023-07-20T07:53:40;3.08;;;1.58;;
81219;SDS011;70690;52.494;13.410;2023-07-20T07:56:06;2.90;;;1.75;;
81219;SDS011;70690;52.494;13.410;2023-07-20T07:58:33;2.42;;;1.50;;
81219;SDS011;70690;52.494;13.410;2023-07-20T08:00:59;5.78;;;2.10;;
81219;SDS011;70690;52.494;13.410;2023-07-20T08:03:25;1.90;;;1.55;;
81219;SDS011;70690;52.494;13.410;2023-07-20T08:05:53;1.42;;;1.10;;
81219;SDS011;70690;52.494;13.410;2023-07-20T08:08:20;2.22;;;1.17;;
81219;SDS011;70690;52.494;13.410;2023-07-20T08:10:47;3.33;;;1.10;;
81219;SDS011;70690;52.494;13.410;2023-07-20T08:13:13;1.65;;;1.10;;
81219;SDS011;70690;52.494;13.410;2023-07-20T08:15:38;2.13;;;1.13;;
81219;SDS011;70690;52.494;13.410;2023-07-20T08:18:04;1.58;;;1.08;;
81219;SDS011;70690;52.494;13.410;2023-07-20T08:20:32;2.95;;;1.10;;
81219;SDS011;70690;52.494;13.410;2023-07-20T08:23:00;1.30;;;1.20;;
81219;SDS011;70690;52.494;13.410;2023-07-20T08:25:26;2.42;;;1.30;;
81219;SDS011;70690;52.494;13.410;2023-07-20T08:27:52;1.65;;;1.30;;
81219;SDS011;70690;52.494;13.410;2023-07-20T08:30:20;1.98;;;1.77;;
81219;SDS011;70690;52.494;13.410;2023-07-20T08:32:48;2.75;;;1.80;;
81219;SDS011;70690;52.494;13.410;2023-07-20T08:35:14;2.22;;;1.75;;
81219;SDS011;70690;52.494;13.410;2023-07-20T08:37:40;3.65;;;1.73;;
81219;SDS011;70690;52.494;13.410;2023-07-20T08:40:06;4.75;;;2.35;;
81219;SDS011;70690;52.494;13.410;2023-07-20T08:42:34;1.10;;;1.10;;
81219;SDS011;70690;52.494;13.410;2023-07-20T08:45:00;2.42;;;1.15;;
81219;SDS011;70690;52.494;13.410;2023-07-20T08:47:31;2.40;;;1.20;;
81219;SDS011;70690;52.494;13.410;2023-07-20T08:49:57;2.10;;;1.20;;
81219;SDS011;70690;52.494;13.410;2023-07-20T08:52:24;1.90;;;1.00;;
81219;SDS011;70690;52.494;13.410;2023-07-20T08:54:50;1.48;;;0.80;;
81219;SDS011;70690;52.494;13.410;2023-07-20T08:57:17;1.88;;;0.98;;
81219;SDS011;70690;52.494;13.410;2023-07-20T08:59:48;2.55;;;1.17;;
81219;SDS011;70690;52.494;13.410;2023-07-20T09:02:20;1.73;;;1.30;;
81219;SDS011;70690;52.494;13.410;2023-07-20T09:04:50;3.70;;;1.23;;
81219;SDS011;70690;52.494;13.410;2023-07-20T09:07:16;10.73;;;6.55;;
81219;SDS011;70690;52.494;13.410;2023-07-20T09:09:42;1.23;;;0.88;;
81219;SDS011;70690;52.494;13.410;2023-07-20T09:12:17;4.13;;;1.25;;
81219;SDS011;70690;52.494;13.410;2023-07-20T09:14:43;1.45;;;0.90;;
81219;SDS011;70690;52.494;13.410;2023-07-20T09:17:12;0.77;;;0.77;;
81219;SDS011;70690;52.494;13.410;2023-07-20T09:19:45;4.40;;;1.00;;
81219;SDS011;70690;52.494;13.410;2023-07-20T09:22:11;1.00;;;0.90;;
81219;SDS011;70690;52.494;13.410;2023-07-20T09:24:37;1.77;;;0.60;;
81219;SDS011;70690;52.494;13.410;2023-07-20T09:27:03;2.55;;;0.73;;
81219;SDS011;70690;52.494;13.410;2023-07-20T09:29:29;2.17;;;1.00;;
81219;SDS011;70690;52.494;13.410;2023-07-20T09:32:00;3.40;;;1.20;;
81219;SDS011;70690;52.494;13.410;2023-07-20T09:34:30;3.92;;;1.00;;
81219;SDS011;70690;52.494;13.410;2023-07-20T09:40:08;1.02;;;0.75;;
81219;SDS011;70690;52.494;13.410;2023-07-20T09:42:34;1.35;;;0.90;;
81219;SDS011;70690;52.494;13.410;2023-07-20T09:45:01;1.90;;;0.90;;
81219;SDS011;70690;52.494;13.410;2023-07-20T09:47:27;0.88;;;0.82;;
81219;SDS011;70690;52.494;13.410;2023-07-20T09:49:57;0.90;;;0.90;;
81219;SDS011;70690;52.494;13.410;2023-07-20T09:52:25;0.85;;;0.85;;
81219;SDS011;70690;52.494;13.410;2023-07-20T09:54:51;0.85;;;0.85;;
81219;SDS011;70690;52.494;13.410;2023-07-20T09:57:19;1.23;;;0.95;;
81219;SDS011;70690;52.494;13.410;2023-07-20T10:00:03;2.10;;;0.80;;
81219;SDS011;70690;52.494;13.410;2023-07-20T10:02:41;1.58;;;1.23;;
81219;SDS011;70690;52.494;13.410;2023-07-20T10:05:14;2.55;;;1.02;;
81219;SDS011;70690;52.494;13.410;2023-07-20T10:07:47;2.25;;;1.20;;
81219;SDS011;70690;52.494;13.410;2023-07-20T10:10:15;2.20;;;1.13;;
81219;SDS011;70690;52.494;13.410;2023-07-20T10:12:46;1.98;;;0.90;;
81219;SDS011;70690;52.494;13.410;2023-07-20T10:15:20;3.23;;;1.27;;
81219;SDS011;70690;52.494;13.410;2023-07-20T10:17:55;2.80;;;1.23;;
81219;SDS011;70690;52.494;13.410;2023-07-20T10:20:27;4.25;;;1.30;;
81219;SDS011;70690;52.494;13.410;2023-07-20T10:22:54;1.10;;;0.98;;
81219;SDS011;70690;52.494;13.410;2023-07-20T10:25:22;1.98;;;1.35;;
81219;SDS011;70690;52.494;13.410;2023-07-20T10:27:49;2.17;;;1.38;;
81219;SDS011;70690;52.494;13.410;2023-07-20T10:30:15;1.88;;;1.40;;
81219;SDS011;70690;52.494;13.410;2023-07-20T10:32:42;2.00;;;1.20;;
81219;SDS011;70690;52.494;13.410;2023-07-20T10:35:15;2.08;;;1.48;;
81219;SDS011;70690;52.494;13.410;2023-07-20T10:37:46;4.93;;;1.33;;
81219;SDS011;70690;52.494;13.410;2023-07-20T10:40:28;3.10;;;1.30;;
81219;SDS011;70690;52.494;13.410;2023-07-20T10:43:02;1.30;;;0.98;;
81219;SDS011;70690;52.494;13.410;2023-07-20T10:48:23;2.63;;;1.15;;
81219;SDS011;70690;52.494;13.410;2023-07-20T10:53:40;2.05;;;1.15;;
81219;SDS011;70690;52.494;13.410;2023-07-20T10:56:19;1.90;;;1.52;;
81219;SDS011;70690;52.494;13.410;2023-07-20T10:58:46;4.40;;;1.80;;
81219;SDS011;70690;52.494;13.410;2023-07-20T11:01:20;1.98;;;1.58;;
81219;SDS011;70690;52.494;13.410;2023-07-20T11:03:49;4.20;;;1.88;;
81219;SDS011;70690;52.494;13.410;2023-07-20T11:09:03;4.45;;;1.58;;
81219;SDS011;70690;52.494;13.410;2023-07-20T11:11:38;2.45;;;1.60;;
81219;SDS011;70690;52.494;13.410;2023-07-20T11:14:09;2.53;;;1.33;;
81219;SDS011;70690;52.494;13.410;2023-07-20T11:16:45;2.58;;;1.40;;
81219;SDS011;70690;52.494;13.410;2023-07-20T11:19:22;1.75;;;1.33;;
81219;SDS011;70690;52.494;13.410;2023-07-20T11:21:52;2.90;;;1.65;;
81219;SDS011;70690;52.494;13.410;2023-07-20T11:24:19;1.40;;;1.30;;
81219;SDS011;70690;52.494;13.410;2023-07-20T11:29:15;3.42;;;1.48;;
81219;SDS011;70690;52.494;13.410;2023-07-20T11:31:42;1.27;;;1.17;;
81219;SDS011;70690;52.494;13.410;2023-07-20T11:34:13;2.47;;;1.30;;
81219;SDS011;70690;52.494;13.410;2023-07-20T11:36:41;1.63;;;1.02;;
81219;SDS011;70690;52.494;13.410;2023-07-20T11:39:08;2.03;;;1.13;;
81219;SDS011;70690;52.494;13.410;2023-07-20T11:41:35;3.47;;;1.30;;
81219;SDS011;70690;52.494;13.410;2023-07-20T11:44:01;3.25;;;1.25;;
81219;SDS011;70690;52.494;13.410;2023-07-20T11:46:30;2.08;;;1.13;;
81219;SDS011;70690;52.494;13.410;2023-07-20T11:48:59;2.13;;;0.80;;
81219;SDS011;70690;52.494;13.410;2023-07-20T11:51:26;1.15;;;0.93;;
81219;SDS011;70690;52.494;13.410;2023-07-20T11:53:55;2.80;;;1.10;;
81219;SDS011;70690;52.494;13.410;2023-07-20T11:56:23;0.98;;;0.75;;
81219;SDS011;70690;52.494;13.410;2023-07-20T11:58:50;1.73;;;0.63;;
81219;SDS011;70690;52.494;13.410;2023-07-20T12:01:17;1.15;;;0.82;;
81219;SDS011;70690;52.494;13.410;2023-07-20T12:06:45;0.98;;;0.70;;
81219;SDS011;70690;52.494;13.410;2023-07-20T12:09:14;2.45;;;1.00;;
81219;SDS011;70690;52.494;13.410;2023-07-20T12:11:42;0.90;;;0.70;;
81219;SDS011;70690;52.494;13.410;2023-07-20T12:14:10;0.63;;;0.63;;
81219;SDS011;70690;52.494;13.410;2023-07-20T12:16:36;1.80;;;1.00;;
81219;SDS011;70690;52.494;13.410;2023-07-20T12:19:04;3.90;;;1.10;;
81219;SDS011;70690;52.494;13.410;2023-07-20T12:21:38;1.25;;;1.02;;
81219;SDS011;70690;52.494;13.410;2023-07-20T12:24:06;2.75;;;1.20;;
81219;SDS011;70690;52.494;13.410;2023-07-20T12:26:37;1.25;;;0.90;;
81219;SDS011;70690;52.494;13.410;2023-07-20T12:29:03;2.63;;;0.80;;
81219;SDS011;70690;52.494;13.410;2023-07-20T12:31:29;1.15;;;0.70;;
81219;SDS011;70690;52.494;13.410;2023-07-20T12:33:56;3.05;;;1.00;;
81219;SDS011;70690;52.494;13.410;2023-07-20T12:36:23;1.52;;;0.90;;
81219;SDS011;70690;52.494;13.410;2023-07-20T12:38:49;0.98;;;0.90;;
81219;SDS011;70690;52.494;13.410;2023-07-20T12:41:15;4.10;;;1.20;;
81219;SDS011;70690;52.494;13.410;2023-07-20T12:43:41;3.20;;;0.75;;
81219;SDS011;70690;52.494;13.410;2023-07-20T12:46:08;3.58;;;0.95;;
81219;SDS011;70690;52.494;13.410;2023-07-20T12:48:35;1.60;;;0.75;;
81219;SDS011;70690;52.494;13.410;2023-07-20T12:51:06;2.33;;;0.68;;
81219;SDS011;70690;52.494;13.410;2023-07-20T12:53:32;2.33;;;1.02;;
81219;SDS011;70690;52.494;13.410;2023-07-20T12:55:58;1.30;;;0.70;;
81219;SDS011;70690;52.494;13.410;2023-07-20T12:58:24;2.50;;;1.25;;
81219;SDS011;70690;52.494;13.410;2023-07-20T13:00:50;6.30;;;1.15;;
81219;SDS011;70690;52.494;13.410;2023-07-20T13:03:16;1.52;;;0.80;;
81219;SDS011;70690;52.494;13.410;2023-07-20T13:05:43;4.93;;;0.70;;
81219;SDS011;70690;52.494;13.410;2023-07-20T13:08:09;2.65;;;0.93;;
81219;SDS011;70690;52.494;13.410;2023-07-20T13:10:35;1.20;;;0.80;;
81219;SDS011;70690;52.494;13.410;2023-07-20T13:13:01;1.27;;;0.77;;
81219;SDS011;70690;52.494;13.410;2023-07-20T13:15:31;1.00;;;0.73;;
81219;SDS011;70690;52.494;13.410;2023-07-20T13:17:57;1.30;;;0.80;;
81219;SDS011;70690;52.494;13.410;2023-07-20T13:20:24;2.22;;;0.90;;
81219;SDS011;70690;52.494;13.410;2023-07-20T13:22:50;0.50;;;0.50;;
81219;SDS011;70690;52.494;13.410;2023-07-20T13:25:16;4.90;;;0.93;;
81219;SDS011;70690;52.494;13.410;2023-07-20T13:27:42;1.80;;;0.63;;
81219;SDS011;70690;52.494;13.410;2023-07-20T13:30:08;2.63;;;0.65;;
81219;SDS011;70690;52.494;13.410;2023-07-20T13:32:38;1.58;;;0.65;;
81219;SDS011;70690;52.494;13.410;2023-07-20T13:35:04;3.03;;;0.68;;
81219;SDS011;70690;52.494;13.410;2023-07-20T13:37:30;0.77;;;0.60;;
81219;SDS011;70690;52.494;13.410;2023-07-20T13:39:56;1.27;;;0.63;;
81219;SDS011;70690;52.494;13.410;2023-07-20T13:42:22;0.77;;;0.40;;
81219;SDS011;70690;52.494;13.410;2023-07-20T13:44:48;2.15;;;0.60;;
81219;SDS011;70690;52.494;13.410;2023-07-20T13:47:14;2.30;;;1.15;;
81219;SDS011;70690;52.494;13.410;2023-07-20T13:49:39;2.08;;;0.60;;
81219;SDS011;70690;52.494;13.410;2023-07-20T13:52:06;2.03;;;1.05;;
81219;SDS011;70690;52.494;13.410;2023-07-20T13:54:32;2.38;;;1.15;;
81219;SDS011;70690;52.494;13.410;2023-07-20T13:57:58;1.30;;;0.75;;
81219;SDS011;70690;52.494;13.410;2023-07-20T14:00:13;2.35;;;0.90;;
81219;SDS011;70690;52.494;13.410;2023-07-20T14:02:39;0.70;;;0.65;;
81219;SDS011;70690;52.494;13.410;2023-07-20T14:05:04;1.02;;;0.50;;
81219;SDS011;70690;52.494;13.410;2023-07-20T14:07:31;0.70;;;0.70;;
81219;SDS011;70690;52.494;13.410;2023-07-20T14:09:57;4.32;;;0.80;;
81219;SDS011;70690;52.494;13.410;2023-07-20T14:12:22;0.77;;;0.73;;
81219;SDS011;70690;52.494;13.410;2023-07-20T14:14:48;5.63;;;1.35;;
81219;SDS011;70690;52.494;13.410;2023-07-20T14:17:14;3.60;;;0.88;;
81219;SDS011;70690;52.494;13.410;2023-07-20T14:19:39;4.25;;;1.05;;
81219;SDS011;70690;52.494;13.410;2023-07-20T14:22:05;1.33;;;0.75;;
81219;SDS011;70690;52.494;13.410;2023-07-20T14:24:31;1.85;;;0.80;;
81219;SDS011;70690;52.494;13.410;2023-07-20T14:26:57;2.25;;;0.75;;
81219;SDS011;70690;52.494;13.410;2023-07-20T14:29:23;1.35;;;0.75;;
81219;SDS011;70690;52.494;13.410;2023-07-20T14:31:56;0.47;;;0.47;;
81219;SDS011;70690;52.494;13.410;2023-07-20T14:34:36;1.08;;;0.65;;
81219;SDS011;70690;52.494;13.410;2023-07-20T14:37:02;1.30;;;0.75;;
81219;SDS011;70690;52.494;13.410;2023-07-20T14:39:29;0.80;;;0.80;;
81219;SDS011;70690;52.494;13.410;2023-07-20T14:41:55;41.03;;;27.17;;
81219;SDS011;70690;52.494;13.410;2023-07-20T14:44:21;4.47;;;1.10;;
81219;SDS011;70690;52.494;13.410;2023-07-20T14:46:46;2.60;;;0.93;;
81219;SDS011;70690;52.494;13.410;2023-07-20T14:49:12;2.33;;;1.50;;
81219;SDS011;70690;52.494;13.410;2023-07-20T14:51:38;2.25;;;1.10;;
81219;SDS011;70690;52.494;13.410;2023-07-20T14:54:08;1.83;;;0.85;;
81219;SDS011;70690;52.494;13.410;2023-07-20T14:56:37;1.95;;;1.10;;
81219;SDS011;70690;52.494;13.410;2023-07-20T14:59:03;1.42;;;1.00;;
81219;SDS011;70690;52.494;13.410;2023-07-20T15:01:31;1.00;;;0.90;;